• Join FlightAware (Why Join?)
  • Login
  • US Flag 
08:42PM EST


 

Airport Tracker/Info


-or-


 

Live Flight TrackerFlight Track Log ✈ DAL6091 ✈ 31-Jul-2013 ✈ KGRR - KDTW

Flight Track Log - Related Links

Times and Time Zones

All times are in EDT time to prevent confusion due to time zone crossing. See the DAL6091 flight status page for this flight to view local times or setup timezone preferences in your user account.

Time Position Orientation Groundspeed Altitude Reporting Facility
EDT Latitude Longitude Course Direction KTS MPH feet Rate Location/Type
10:33AM 42.9106 -85.3781 68° East 209 241 4,800  Level Chicago Center
10:34AM 42.9378 -85.2867 68° East 249 287 6,700 1,980 Climbing Chicago Center
10:35AM 42.9145 -85.1381 59° Northeast  Level FlightAware Approximate
10:35AM 42.9656 -85.1853 69° East 280 322 8,900  Level Chicago Center
10:36AM 42.9576 -85.0241 63° Northeast  Level FlightAware Approximate
10:36AM 42.9967 -85.0803 68° East 296 341 10,900  Level Chicago Center
10:37AM 43.0016 -84.9105 62° Northeast  Level FlightAware Approximate
10:38AM 43.0302 -84.8370 62° Northeast  Level FlightAware Approximate
10:38AM 43.0386 -84.9328 69° East 355 409 11,100  Level Chicago Center
10:39AM 43.0742 -84.8006 70° East 371 427 11,100  Level Chicago Center
10:40AM 43.0572 -84.6600 99° East 374 430 11,100  Level Chicago Center
10:41AM 43.0253 -84.5244 108° East 375 432 11,100  Level Chicago Center
10:42AM 42.9958 -84.3969 107° East 357 411 11,100  Level Chicago Center
10:43AM 42.9672 -84.2747 108° East 341 392 11,100 -60 Level Chicago Center
10:44AM 42.9328 -84.1319 108° East 334 384 11,000  Descending Chicago Center
10:44AM 42.9139 -84.0703 113° Southeast 332 382 11,100 60 Climbing Cleveland Center
10:45AM 42.8939 -83.9728 106° East 308 354 11,100  Level Cleveland Center
10:46AM 42.8681 -83.8581 107° East 314 361 11,100  Level Cleveland Center
10:47AM 42.8394 -83.7575 111° Southeast 313 360 11,100 -180 Level Cleveland Center
10:48AM 42.7561 -83.6881 149° Southeast 290 334 10,800 -660 Descending Cleveland Center
10:49AM 42.6925 -83.6483 155° Southeast 268 308 9,700 -1,200 Descending Cleveland Center
10:50AM 42.6308 -83.6142 158° South 224 258 8,600 -1,320 Descending Cleveland Center
10:51AM 42.5867 -83.5444 131° Southeast 224 258 6,900 -1,140 Descending Cleveland Center
10:52AM 42.5742 -83.4647 102° East 237 273 6,400 -480 Descending Cleveland Center
10:53AM 42.5678 -83.3828 96° East 205 236 6,100 -600 Descending Cleveland Center
10:54AM 42.5444 -83.3142 115° Southeast 202 232 5,300 -960 Descending Cleveland Center
10:55AM 42.4844 -83.2947 167° South 193 222 4,100 -660 Descending Cleveland Center
10:56AM 42.4325 -83.2894 176° South 181 208 3,900 -540 Descending Cleveland Center
10:57AM 42.3867 -83.2875 178° South 182 209 3,100 -420 Descending Cleveland Center
10:58AM 42.3344 -83.2881 180° South 161 185 3,100 -360 Level Cleveland Center
10:59AM 42.3028 -83.3119 209° Southwest 136 157 2,400 -720 Descending Cleveland Center
11:00AM 42.2667 -83.3386 209° Southwest 144 166 1,700 -780 Descending Cleveland Center
11:01AM 42.2328 -83.3594 204° Southwest 137 158 900 -840 Descending Cleveland Center